Fairmont, MN (56031)

7:21 AM CDT on September 26, 2016 (GMT -0500)
FudgeHome | | Change Station

Elev 1178 ft 43.67 °N, 94.47 °W | Updated 9 seconds ago

Clear
Clear
48.2 °F
Feels Like 46 °F
N
6.0
Wind Variable Wind from West

Today
High -- | Low -- °F
--% Chance of Precip.
Yesterday
High -- | Low -- °F
Precip. -- in
Pressure 30.10 in
Visibility 10.0 miles
Clouds Clear
Windchill 46 °F
Dew Point 39 °F
Humidity 73%
Rainfall 0.00 in
Snow Depth Not available.
7:10 AM 7:06 PM
Waning Crescent, 19% visible
METAR KFRM 261156Z AUTO 28013KT 10SM CLR 09/03 A3008 RMK AO2 SLP192 T00940033 10111 20089 53007
Pressure 30.10 in
Visibility 10.0 miles
Clouds Clear
Windchill 46 °F
Dew Point 39 °F
Humidity 73%
Rainfall 0.00 in
Snow Depth Not available.
7:10 AM 7:06 PM
Waning Crescent, 19% visible
METAR KFRM 261156Z AUTO 28013KT 10SM CLR 09/03 A3008 RMK AO2 SLP192 T00940033 10111 20089 53007

10-Day Weather Forecast

Almanac

Astronomy

Sep. 26, 2016 Rise Set
Actual Time
Civil Twilight
Nautical Twilight
Astronomical Twilight
Moon
Length of Visible Light
Length of Day
Tomorrow will be .
, % of the Moon is Illuminated

Today's Extremes

State Highs State Lows

Community

WunderPhotos

Upload Photos

1,941,863 photos uploaded!

WunderBlog® & News

Nearby

Air Quality

  Air Quality AQ Index Pollutant
Not available.

Snow Depth

Station Depth Elevation

Earthquake Activity

City Distance Mag. Time & Date
Minimum magnitude displayed is 2.5.

Coastal Water Temperatures

Place Temperature

Stations

Nearby Weather Stations

Station Location Temp. Windchill Dew Point Humidity Wind Precip. Elev Updated Type
                   

Watches & Warnings

There are currently no watches in effect.